TimeCST,TemperatureF,Dew PointF,Humidity,Sea Level PressureIn,VisibilityMPH,Wind Direction,Wind SpeedMPH,Gust SpeedMPH,PrecipitationIn,Events,Conditions,WindDirDegrees,DateUTC
12:56 AM,48.9,44.1,83,30.24,10.0,ESE,5.8,-,N/A,,Clear,120,2013-11-21 06:56:00
1:56 AM,48.0,44.1,86,30.25,10.0,ESE,6.9,-,N/A,,Clear,120,2013-11-21 07:56:00
2:56 AM,46.0,43.0,89,30.24,10.0,ESE,6.9,-,N/A,,Clear,120,2013-11-21 08:56:00
3:17 AM,48.2,44.6,87,30.21,10.0,ESE,6.9,-,N/A,,Mostly Cloudy,120,2013-11-21 09:17:00
3:52 AM,46.4,42.8,87,30.21,10.0,ESE,5.8,-,N/A,,Scattered Clouds,110,2013-11-21 09:52:00
3:56 AM,46.0,43.0,89,30.25,10.0,ESE,5.8,-,N/A,,Scattered Clouds,120,2013-11-21 09:56:00
4:08 AM,48.2,44.6,87,30.21,10.0,SE,6.9,-,N/A,,Mostly Cloudy,130,2013-11-21 10:08:00
4:56 AM,50.0,45.0,83,30.25,10.0,ESE,5.8,-,N/A,,Overcast,120,2013-11-21 10:56:00
5:56 AM,50.0,46.0,86,30.28,10.0,ESE,4.6,-,N/A,,Overcast,110,2013-11-21 11:56:00
6:01 AM,50.0,46.4,87,30.24,10.0,ESE,4.6,-,N/A,,Overcast,110,2013-11-21 12:01:00
6:56 AM,50.0,46.0,86,30.29,10.0,SE,6.9,-,N/A,,Overcast,130,2013-11-21 12:56:00
7:56 AM,52.0,46.9,83,30.31,10.0,ESE,4.6,-,N/A,,Overcast,120,2013-11-21 13:56:00
8:11 AM,51.8,48.2,88,30.28,10.0,ESE,8.1,-,N/A,,Overcast,120,2013-11-21 14:11:00
8:56 AM,53.1,48.9,86,30.28,8.0,ESE,10.4,-,N/A,,Overcast,110,2013-11-21 14:56:00
9:56 AM,55.9,50.0,80,30.28,10.0,Variable,4.6,-,N/A,,Overcast,0,2013-11-21 15:56:00
10:29 AM,55.9,51.1,84,30.28,10.0,SSE,4.6,-,N/A,,Overcast,150,2013-11-21 16:29:00
10:56 AM,57.9,51.1,78,30.27,10.0,SE,6.9,-,N/A,,Overcast,140,2013-11-21 16:56:00
11:56 AM,60.1,53.1,78,30.24,10.0,ESE,8.1,-,N/A,,Overcast,110,2013-11-21 17:56:00
12:56 PM,62.1,54.0,75,30.22,10.0,ESE,4.6,-,N/A,,Overcast,110,2013-11-21 18:56:00
1:22 PM,62.1,53.1,72,30.21,10.0,Variable,3.5,-,N/A,,Overcast,0,2013-11-21 19:22:00
1:56 PM,63.0,54.0,72,30.20,10.0,ESE,5.8,-,N/A,,Overcast,120,2013-11-21 19:56:00
2:56 PM,63.0,55.0,75,30.19,10.0,ESE,5.8,-,N/A,,Overcast,120,2013-11-21 20:56:00
3:56 PM,64.0,55.0,73,30.20,10.0,East,8.1,-,N/A,,Overcast,80,2013-11-21 21:56:00
4:56 PM,62.1,55.0,78,30.21,10.0,ESE,6.9,-,N/A,,Overcast,110,2013-11-21 22:56:00
5:15 PM,60.1,55.0,83,30.21,10.0,ESE,5.8,-,N/A,,Mostly Cloudy,120,2013-11-21 23:15:00
5:38 PM,60.1,55.9,86,30.22,10.0,SE,4.6,-,N/A,,Mostly Cloudy,130,2013-11-21 23:38:00
5:56 PM,61.0,55.9,83,30.22,10.0,ESE,5.8,-,N/A,,Overcast,110,2013-11-21 23:56:00
6:56 PM,60.1,55.0,83,30.23,10.0,ESE,4.6,-,N/A,,Overcast,110,2013-11-22 00:56:00
7:56 PM,60.1,55.0,83,30.24,10.0,SE,3.5,-,N/A,,Overcast,130,2013-11-22 01:56:00
8:35 PM,59.0,55.0,87,30.25,10.0,ESE,4.6,-,N/A,,Overcast,120,2013-11-22 02:35:00
8:56 PM,60.1,55.0,83,30.26,10.0,Calm,Calm,-,N/A,,Overcast,0,2013-11-22 02:56:00
9:56 PM,59.0,55.9,90,30.30,9.0,SE,3.5,-,N/A,,Overcast,140,2013-11-22 03:56:00
10:15 PM,60.1,55.9,86,30.27,10.0,SE,4.6,-,N/A,,Overcast,140,2013-11-22 04:15:00
10:56 PM,60.1,57.0,90,30.29,9.0,SE,3.5,-,N/A,,Overcast,140,2013-11-22 04:56:00
11:24 PM,59.0,57.0,93,30.26,7.0,SSE,3.5,-,N/A,,Overcast,160,2013-11-22 05:24:00
11:56 PM,60.1,57.9,93,30.28,7.0,SE,3.5,-,N/A,,Overcast,130,2013-11-22 05:56:00